^^
Meteo Knjazevac Station Historical Data
Daily Summary for January 15, 2021 Units:  Metric    English   Both
Daily Weekly Monthly Yearly Custom
  High: Low: Average:
Temperature: 23.6 °C 8.1 °C 15 °C
Dew Point: 14.7 °C 7 °C 10.8 °C
Humidity: 95% 49% 78%
Wind Speed: 19.3km/h 0km/h 2.9km/h
Wind Gust: 38.6km/h - -
Wind- - South
Pressure: 1013.4 hPa 1010.4 hPa -
Precipitation: 0.51 mm    
Historical Graphs
 
 
Tabular Data for January 15, 2021
Time Temperature Dew Point Pressure Wind Wind Speed Wind Gust Humidity Rainfall Rate (Hourly) solar Conditions
00:00 12.6 °C 9.2 °C 1013.4 hPa Calm   4.8 km/h 80% 0 mm 0 W/m2
00:10 12.5 °C 9.2 °C 1013.4 hPa West 1.6 km/h 4.8 km/h 80% 0 mm 0 W/m2
00:20 12.3 °C 8.9 °C 1013.4 hPa WNW 1.6 km/h 4.8 km/h 80% 0 mm 0 W/m2
00:30 12 °C 9.2 °C 1013.1 hPa West 3.2 km/h 4.8 km/h 83% 0 mm 0 W/m2
00:40 11.8 °C 9 °C 1013.1 hPa NNW 1.6 km/h 4.8 km/h 83% 0 mm 0 W/m2
00:50 11.6 °C 8.8 °C 1013.4 hPa Calm   3.2 km/h 83% 0 mm 0 W/m2
01:00 11.3 °C 8.7 °C 1013.4 hPa Calm   3.2 km/h 84% 0 mm 0 W/m2
01:10 11.1 °C 8.5 °C 1013.4 hPa Calm   3.2 km/h 84% 0 mm 0 W/m2
01:20 10.9 °C 8.5 °C 1013.4 hPa Calm   4.8 km/h 85% 0 mm 0 W/m2
01:30 10.8 °C 8.4 °C 1013.4 hPa WNW 1.6 km/h 3.2 km/h 85% 0 mm 0 W/m2
01:40 10.6 °C 8.2 °C 1013.1 hPa Calm   4.8 km/h 85% 0 mm 0 W/m2
01:50 10.4 °C 8.2 °C 1013.1 hPa North 1.6 km/h 4.8 km/h 86% 0 mm 0 W/m2
02:00 10.3 °C 8.1 °C 1013.1 hPa Calm   4.8 km/h 86% 0 mm 0 W/m2
02:10 10.2 °C 8.3 °C 1013.1 hPa Calm   4.8 km/h 88% 0 mm 0 W/m2
02:20 10.1 °C 8.2 °C 1013.1 hPa NE 3.2 km/h 6.4 km/h 88% 0 mm 0 W/m2
02:30 10.1 °C 8.2 °C 1013.1 hPa Calm   6.4 km/h 88% 0 mm 0 W/m2
02:40 10 °C 8.1 °C 1013.1 hPa NNE 1.6 km/h 3.2 km/h 88% 0 mm 0 W/m2
02:50 9.6 °C 7.7 °C 1013.1 hPa North 3.2 km/h 3.2 km/h 88% 0 mm 0 W/m2
03:00 9.6 °C 7.9 °C 1013.1 hPa NNE 3.2 km/h 4.8 km/h 89% 0 mm 0 W/m2
03:10 9.6 °C 7.9 °C 1013.4 hPa NNE 1.6 km/h 4.8 km/h 89% 0 mm 0 W/m2
03:20 9.4 °C 7.8 °C 1013.4 hPa NNE 1.6 km/h 4.8 km/h 90% 0 mm 0 W/m2
03:30 9.4 °C 7.8 °C 1013.4 hPa NE 3.2 km/h 6.4 km/h 90% 0 mm 0 W/m2
03:40 9.3 °C 7.6 °C 1013.1 hPa Calm   4.8 km/h 89% 0 mm 0 W/m2
03:50 9.1 °C 7.4 °C 1013.1 hPa Calm   3.2 km/h 89% 0 mm 0 W/m2
04:00 8.8 °C 7.2 °C 1013.1 hPa Calm   4.8 km/h 90% 0 mm 0 W/m2
04:10 8.8 °C 7.4 °C 1013.1 hPa NW 1.6 km/h 4.8 km/h 91% 0 mm 0 W/m2
04:20 8.5 °C 7.1 °C 1013.1 hPa Calm   3.2 km/h 91% 0 mm 0 W/m2
04:30 8.5 °C 7.1 °C 1013.1 hPa Calm   3.2 km/h 91% 0 mm 0 W/m2
04:40 8.4 °C 7 °C 1013.1 hPa NW 1.6 km/h 3.2 km/h 91% 0 mm 0 W/m2
04:50 8.4 °C 7.3 °C 1013.1 hPa Calm   4.8 km/h 93% 0 mm 0 W/m2
05:00 8.3 °C 7.2 °C 1013.1 hPa Calm   3.2 km/h 93% 0 mm 0 W/m2
05:10 8.3 °C 7.2 °C 1013.1 hPa Calm   3.2 km/h 93% 0 mm 4 W/m2
05:20 8.1 °C 7.1 °C 1013.1 hPa WNW 1.6 km/h 4.8 km/h 93% 0 mm 9 W/m2
05:30 8.1 °C 7.2 °C 1013.1 hPa West 3.2 km/h 3.2 km/h 94% 0 mm 17 W/m2
05:40 8.2 °C 7.3 °C 1013.1 hPa West 3.2 km/h 6.4 km/h 94% 0 mm 24 W/m2
05:50 8.3 °C 7.6 °C 1013.1 hPa Calm   4.8 km/h 95% 0 mm 36 W/m2
06:00 8.4 °C 7.7 °C 1013.1 hPa NW 1.6 km/h 3.2 km/h 95% 0 mm 50 W/m2
06:10 8.5 °C 7.7 °C 1013.1 hPa WNW 1.6 km/h 4.8 km/h 95% 0 mm 68 W/m2
06:20 8.7 °C 7.9 °C 1013.1 hPa West 3.2 km/h 6.4 km/h 95% 0 mm 82 W/m2
06:30 8.9 °C 8.2 °C 1013.1 hPa West 1.6 km/h 6.4 km/h 95% 0 mm 82 W/m2
06:40 9.1 °C 8.3 °C 1013.1 hPa West 1.6 km/h 4.8 km/h 95% 0 mm 101 W/m2
06:50 9.3 °C 8.6 °C 1013.1 hPa WNW 1.6 km/h 4.8 km/h 95% 0 mm 119 W/m2
07:00 9.5 °C 8.7 °C 1013.1 hPa WSW 1.6 km/h 3.2 km/h 95% 0 mm 179 W/m2
07:10 9.7 °C 8.9 °C 1012.8 hPa West 1.6 km/h 4.8 km/h 95% 0 mm 84 W/m2
07:20 9.9 °C 9.1 °C 1012.8 hPa West 1.6 km/h 3.2 km/h 95% 0 mm 313 W/m2
07:30 10.2 °C 9.4 °C 1012.8 hPa Calm   3.2 km/h 95% 0 mm 343 W/m2
07:40 10.5 °C 9.7 °C 1012.4 hPa West 1.6 km/h 6.4 km/h 95% 0 mm 377 W/m2
07:50 10.8 °C 9.7 °C 1012.4 hPa Calm   3.2 km/h 93% 0 mm 409 W/m2
08:00 11.3 °C 10.2 °C 1012.4 hPa Calm   4.8 km/h 93% 0 mm 444 W/m2
08:10 11.9 °C 10.3 °C 1012.1 hPa North 1.6 km/h 4.8 km/h 90% 0 mm 481 W/m2
08:20 12.5 °C 10.9 °C 1012.1 hPa SW 1.6 km/h 4.8 km/h 90% 0 mm 516 W/m2
08:30 13.1 °C 11.3 °C 1012.1 hPa NNW 4.8 km/h 8 km/h 89% 0 mm 555 W/m2
08:40 14 °C 11.6 °C 1012.1 hPa SE 1.6 km/h 4.8 km/h 85% 0 mm 587 W/m2
08:50 14.9 °C 12.3 °C 1012.1 hPa WNW 1.6 km/h 3.2 km/h 84% 0 mm 615 W/m2
09:00 16.4 °C 12.9 °C 1012.1 hPa Calm   11.3 km/h 80% 0 mm 613 W/m2
09:10 17.7 °C 13 °C 1012.1 hPa NE 1.6 km/h 9.7 km/h 74% 0 mm 669 W/m2
09:20 18.8 °C 13.7 °C 1012.1 hPa NNE 3.2 km/h 12.9 km/h 72% 0 mm 695 W/m2
09:30 19.6 °C 13.3 °C 1012.1 hPa NE 1.6 km/h 12.9 km/h 67% 0 mm 612 W/m2
09:40 20.2 °C 13.4 °C 1011.7 hPa East 1.6 km/h 9.7 km/h 65% 0 mm 607 W/m2
09:50 20.6 °C 12.6 °C 1011.7 hPa East 1.6 km/h 9.7 km/h 60% 0 mm 409 W/m2
10:00 20.6 °C 13.1 °C 1011.7 hPa North 1.6 km/h 9.7 km/h 62% 0 mm 525 W/m2
10:10 20.9 °C 12.6 °C 1011.7 hPa ENE 1.6 km/h 9.7 km/h 59% 0 mm 459 W/m2
10:20 21 °C 12.2 °C 1011.7 hPa ESE 3.2 km/h 9.7 km/h 57% 0 mm 642 W/m2
10:30 21.3 °C 12.4 °C 1011.7 hPa East 4.8 km/h 14.5 km/h 57% 0 mm 661 W/m2
10:40 21.5 °C 12.1 °C 1011.7 hPa East 3.2 km/h 14.5 km/h 55% 0 mm 403 W/m2
10:50 21.4 °C 12 °C 1011.7 hPa NNE 8 km/h 14.5 km/h 55% 0 mm 366 W/m2
11:00 21.3 °C 12.4 °C 1011.7 hPa North 1.6 km/h 14.5 km/h 57% 0 mm 447 W/m2
11:10 21.3 °C 12.4 °C 1011.7 hPa West 3.2 km/h 9.7 km/h 57% 0 mm 502 W/m2
11:20 21.6 °C 13 °C 1011.7 hPa West 4.8 km/h 11.3 km/h 58% 0 mm 913 W/m2
11:30 22 °C 12 °C 1011.7 hPa SW 1.6 km/h 9.7 km/h 53% 0 mm 420 W/m2
11:40 21.9 °C 11.9 °C 1011.7 hPa WNW 3.2 km/h 8 km/h 53% 0 mm 748 W/m2
11:50 22 °C 12 °C 1011.7 hPa SW 3.2 km/h 9.7 km/h 53% 0 mm 316 W/m2
12:00 21.7 °C 11.7 °C 1011.4 hPa West 4.8 km/h 11.3 km/h 53% 0 mm 353 W/m2
12:10 21.7 °C 12.3 °C 1011.4 hPa WSW 4.8 km/h 9.7 km/h 55% 0 mm 761 W/m2
12:20 21.9 °C 12.2 °C 1011.4 hPa NW 3.2 km/h 9.7 km/h 54% 0 mm 453 W/m2
12:30 21.9 °C 11.9 °C 1011.4 hPa WNW 8 km/h 12.9 km/h 53% 0 mm 508 W/m2
12:40 22.1 °C 12.1 °C 1011.1 hPa WNW 8 km/h 12.9 km/h 53% 0 mm 726 W/m2
12:50 22.5 °C 12.4 °C 1011.1 hPa NNW 4.8 km/h 11.3 km/h 53% 0 mm 856 W/m2
13:00 22.9 °C 12.8 °C 1011.1 hPa WNW 3.2 km/h 9.7 km/h 53% 0 mm 583 W/m2
13:10 23.3 °C 12 °C 1010.7 hPa NW 3.2 km/h 11.3 km/h 49% 0 mm 920 W/m2
13:20 23.6 °C 12.6 °C 1010.7 hPa North 4.8 km/h 11.3 km/h 50% 0 mm 804 W/m2
13:30 23.5 °C 13.4 °C 1010.7 hPa NNE 8 km/h 16.1 km/h 53% 0 mm 323 W/m2
13:40 23.2 °C 13.6 °C 1010.7 hPa North 1.6 km/h 16.1 km/h 55% 0 mm 348 W/m2
13:50 22.9 °C 13.1 °C 1010.7 hPa North 3.2 km/h 14.5 km/h 54% 0 mm 249 W/m2
14:00 22.2 °C 12.7 °C 1010.7 hPa NE 3.2 km/h 20.9 km/h 55% 0 mm 201 W/m2
14:10 21.9 °C 13.3 °C 1010.7 hPa NNE 3.2 km/h 16.1 km/h 58% 0 mm 220 W/m2
14:20 21.8 °C 13.2 °C 1010.7 hPa NNE 3.2 km/h 14.5 km/h 58% 0 mm 249 W/m2
14:30 21.7 °C 13.1 °C 1010.7 hPa NNE 4.8 km/h 9.7 km/h 58% 0 mm 213 W/m2
14:40 21.6 °C 13.5 °C 1010.7 hPa North 8 km/h 9.7 km/h 60% 0 mm 128 W/m2
14:50 21.1 °C 12.7 °C 1010.7 hPa East 19.3 km/h 30.6 km/h 59% 0 mm 55 W/m2
15:00 18.9 °C 13.1 °C 1010.7 hPa ESE 19.3 km/h 38.6 km/h 69% 0.25 mm 44 W/m2
15:10 17.6 °C 12.9 °C 1011.1 hPa SE 11.3 km/h 24.1 km/h 74% 0 mm 56 W/m2
15:20 16.9 °C 12.8 °C 1010.7 hPa ESE 14.5 km/h 32.2 km/h 77% 0 mm 73 W/m2
15:30 16.6 °C 12.9 °C 1010.7 hPa East 12.9 km/h 27.4 km/h 79% 0.51 mm 98 W/m2
15:40 16.6 °C 13.7 °C 1011.1 hPa NNW 1.6 km/h 9.7 km/h 83% 0 mm 147 W/m2
15:50 16.4 °C 13.7 °C 1011.1 hPa NW 3.2 km/h 8 km/h 84% 0 mm 183 W/m2
16:00 16.4 °C 13.5 °C 1011.1 hPa NNE 4.8 km/h 12.9 km/h 83% 0 mm 228 W/m2
16:10 16.5 °C 13.6 °C 1011.1 hPa NNW 8 km/h 12.9 km/h 83% 0 mm 220 W/m2
16:20 16.6 °C 13.9 °C 1011.1 hPa North 4.8 km/h 12.9 km/h 84% 0 mm 193 W/m2
16:30 16.4 °C 13.9 °C 1011.1 hPa North 4.8 km/h 11.3 km/h 85% 0 mm 194 W/m2
16:40 16.4 °C 14.1 °C 1011.1 hPa North 1.6 km/h 9.7 km/h 86% 0 mm 213 W/m2
16:50 16.4 °C 14.1 °C 1011.1 hPa North 1.6 km/h 4.8 km/h 86% 0 mm 187 W/m2
17:00 16.4 °C 13.9 °C 1010.7 hPa Calm   3.2 km/h 85% 0 mm 190 W/m2
17:10 16.4 °C 13.9 °C 1010.7 hPa NNE 3.2 km/h 8 km/h 85% 0 mm 205 W/m2
17:20 16.6 °C 14.2 °C 1010.7 hPa NNE 1.6 km/h 8 km/h 86% 0 mm 145 W/m2
17:30 16.6 °C 14.2 °C 1010.7 hPa NW 1.6 km/h 6.4 km/h 86% 0 mm 189 W/m2
17:40 16.5 °C 13.9 °C 1010.7 hPa SSE 1.6 km/h 6.4 km/h 85% 0 mm 117 W/m2
17:50 16.6 °C 14.2 °C 1010.4 hPa Calm   3.2 km/h 86% 0 mm 157 W/m2
18:00 16.8 °C 14.4 °C 1010.4 hPa WSW 1.6 km/h 3.2 km/h 86% 0 mm 246 W/m2
18:10 17.2 °C 14.7 °C 1010.4 hPa West 1.6 km/h 6.4 km/h 85% 0 mm 140 W/m2
Knjazevac, Serbia
Compliments of Weather Underground - 2 mb